Alsager, United Kingdom
Current Conditions -  °F | °C
As of 4:50 AM on Saturday 20 Dec 2014 (Local Time) from EGCC Reporting Station
Broken Clouds Broken Clouds  
Wind Chill: 36°   Ceiling: 1900
Heat Index: 45°   Visibility: 6mi
Dew Point: 39°   Wind: 24mph
Humidity: 81%   Direction: 270°W
Pressure: 30.09"   Gusts: NA
Location:  53.1°N, 2.31°W
Report Text: EGCC 200450Z 27021KT 9999 BKN019 BKN025 07/04 Q1019 RERA NOSIG
Loading
Personal Weather Stations






























Interactive Weather Map New forecast layout! Learn more

10-Day Weather Forecast

Advertisements
Track Severe Weather on mobile